Detall de PIREP

Printer-friendly versionPDF version

[2014/10/17 16:18:00]
Flight IATA:CT3314
Pilot Number:042
Company ICAO:CAT
Aircraft Type:A320/E
PAX:92
Departing Airport: LEZG
Destination Airport: OLBA
Alternate Airport:OSDI
Online: VATSIM
Route:PONEN UN870 BCN UN725 ORKUM UM603 ARSIK UP167 LURON UQ152 CDC UL869 CRN UM601 LCA UR19 KUKLA
Flight Level:F350
No Slew and time accel
No pause
Crash detect
Detect pilot in Cockpit between each 30 and 45 minutes
16:18 Zero fuel Weight: 124281 Lbs, Fuel Weight: 42206 Lbs
16:18 VATSIM:LEZG 171500Z 09008KT 050V120 CAVOK 27/11 Q1016
16:18 VATSIM:OLBA 171500Z 19012KT 8000 SCT026 FEW080 FEW200 25/18 Q1018
16:29 Parking Brakes off
16:38 Take-off
16:38 Take off Weight: 165207 Lbs
16:38 Wind: 087º @ 009 Knots Heading: 117º
16:38 POS N41º 39´ 27´´ W001º 00´ 47´´
16:38 Gear Up: 143 Knots
16:38 Flaps:3 at 143 Knots
16:39 Flaps:2 at 141 Knots
16:40 Flaps:1 at 203 Knots
16:40 Flaps:0 at 204 Knots
16:53 Wind:246º@040 Knots Heading: 093º Ground Speed: 494 Knots Altitude 32946 ft
16:54 TOC
16:54 Fuel Weight: 37354 Lb
17:08 Wind:248º@041 Knots Heading: 106º Ground Speed: 485 Knots Altitude 35104 ft
17:23 Wind:262º@045 Knots Heading: 099º Ground Speed: 495 Knots Altitude 35121 ft
17:38 Wind:270º@047 Knots Heading: 112º Ground Speed: 495 Knots Altitude 35150 ft
17:53 Wind:275º@034 Knots Heading: 120º Ground Speed: 482 Knots Altitude 35147 ft
18:08 Wind:283º@033 Knots Heading: 090º Ground Speed: 482 Knots Altitude 35196 ft
18:23 Wind:299º@037 Knots Heading: 090º Ground Speed: 482 Knots Altitude 35196 ft
18:38 Wind:310º@042 Knots Heading: 105º Ground Speed: 487 Knots Altitude 35150 ft
18:53 Wind:347º@032 Knots Heading: 112º Ground Speed: 467 Knots Altitude 35167 ft
19:08 Wind:344º@041 Knots Heading: 106º Ground Speed: 470 Knots Altitude 35114 ft
19:23 Wind:333º@046 Knots Heading: 092º Ground Speed: 471 Knots Altitude 35078 ft
19:38 Wind:337º@060 Knots Heading: 093º Ground Speed: 474 Knots Altitude 35085 ft
19:53 Wind:349º@056 Knots Heading: 100º Ground Speed: 468 Knots Altitude 35049 ft
20:08 Wind:347º@065 Knots Heading: 100º Ground Speed: 472 Knots Altitude 35049 ft
20:15 TOD
20:15 Fuel Weight: 20751 Lb
20:23 Wind:325º@043 Knots Heading: 121º Ground Speed: 359 Knots Altitude 24603 ft
20:24 Gear Down: 219 Knots
20:24 Gear Up: 217 Knots
20:24 Flaps:1 at 218 Knots
20:32 Flaps:3 at 179 Knots
20:34 Gear Down: 170 Knots
20:34 Flaps:4 at 168 Knots
20:34 Flaps:5 at 167 Knots
20:36 Flaps:4 at 168 Knots
20:36 Gear Up: 173 Knots
20:36 Gear Down: 176 Knots
20:37 Flaps:5 at 145 Knots
20:37 Gear Up: 144 Knots
20:37 Gear Down: 157 Knots
20:38 Wind:195º@010 Knots Heading: 212º Ground Speed: 137 Knots Altitude 698 ft
20:38 TouchDown:Rate -479 ft/min Speed: 121 Knots
20:39 VATSIM:OLBA 171900Z 18012KT 9999 BKN026 24/18 Q1018
20:39 Land
20:39 Wind:180º@012 Knots
20:39 Heading: 204º
20:39 Flight Duration: 04:01
20:39 Landing Weight: 143693 Lbs
20:39 POS N33º 48´ 35´´ E035º 29´ 23´´
20:40 Parking brakes on
20:40 Block to Block Duration: 04:11
20:40 Final Fuel: 19283 Lbls
20:40 Spent Fuel: 22923 Lbls
20:40 Flight Length: 1832 NM
20:40 TOD Land Length: 115 NM

Exportar CSV

Powered by Drupal - Modified by Danger4k